Time;durP1;ratioP1;P1;durP2;ratioP2;P2;SDS_P1;SDS_P2;PMS_P1;PMS_P2;Temp;Humidity;BMP_temperature;BMP_pressure;BME280_temperature;BME280_humidity;BME280_pressure;Samples;Min_cycle;Max_cycle;Signal;HPM_P1;HPM_P2
2023/12/02 00:01:48;;;;;;;3.33;2.30;;;;;;;18.56;53.54;99011.53;4991183;28;20165;-75
2023/12/02 00:04:13;;;;;;;3.90;2.33;;;;;;;18.54;53.47;99014.78;4989323;28;20249;-74
2023/12/02 00:06:39;;;;;;;3.40;2.50;;;;;;;18.52;53.72;99005.78;4990219;28;20200;-74
2023/12/02 00:09:04;;;;;;;3.30;2.30;;;;;;;18.56;53.46;99011.53;4992516;28;20161;-74
2023/12/02 00:11:30;;;;;;;3.13;2.43;;;;;;;18.53;53.43;99001.72;5019775;28;20179;-74
2023/12/02 00:13:55;;;;;;;5.07;2.90;;;;;;;18.55;53.85;98999.25;5011886;28;20164;-75
2023/12/02 00:16:20;;;;;;;3.43;2.33;;;;;;;18.53;53.71;98996.03;4970456;28;20189;-74
2023/12/02 00:18:46;;;;;;;4.60;2.83;;;;;;;18.54;53.51;99002.53;4989426;28;20158;-74
2023/12/02 00:21:11;;;;;;;7.53;2.57;;;;;;;18.56;53.33;99000.09;4958024;28;20170;-75
2023/12/02 00:23:37;;;;;;;4.10;2.63;;;;;;;18.51;53.82;99001.31;4991525;28;20183;-74
2023/12/02 00:26:02;;;;;;;3.30;2.50;;;;;;;18.55;53.38;99007.84;5011251;28;20584;-75
2023/12/02 00:28:28;;;;;;;4.40;2.90;;;;;;;18.50;53.75;99013.97;5011470;28;20161;-75
2023/12/02 00:30:53;;;;;;;3.03;2.07;;;;;;;18.54;53.33;99014.78;4987708;28;20770;-74
2023/12/02 00:33:18;;;;;;;2.73;1.93;;;;;;;18.54;53.20;99017.66;5021113;28;20259;-75
2023/12/02 00:35:44;;;;;;;3.03;2.40;;;;;;;18.51;53.80;99021.31;4959613;28;20173;-74
2023/12/02 00:38:09;;;;;;;3.00;2.17;;;;;;;18.54;53.61;99020.50;4974691;28;20189;-75
2023/12/02 00:40:35;;;;;;;3.57;2.40;;;;;;;18.50;53.70;99013.97;4977178;28;20628;-74
2023/12/02 00:43:00;;;;;;;3.20;2.33;;;;;;;18.54;53.34;99017.66;4991584;28;20177;-74
2023/12/02 00:45:25;;;;;;;2.83;1.90;;;;;;;18.52;53.74;99011.50;4990924;28;20188;-75
2023/12/02 00:47:51;;;;;;;2.90;1.83;;;;;;;18.50;53.63;99019.69;4974927;28;20192;-74
2023/12/02 00:50:16;;;;;;;3.73;2.33;;;;;;;18.53;53.67;99033.16;4991498;28;20216;-74
2023/12/02 00:52:42;;;;;;;4.00;2.37;;;;;;;18.51;53.65;99026.25;4990446;28;20242;-74
2023/12/02 00:55:08;;;;;;;3.30;2.20;;;;;;;18.47;53.91;99037.66;4991550;28;20177;-74
2023/12/02 00:57:33;;;;;;;4.57;2.67;;;;;;;18.51;53.38;99034.81;4975169;28;20177;-74
2023/12/02 00:59:59;;;;;;;3.10;2.40;;;;;;;18.50;53.36;99036.84;4991768;28;20181;-74
2023/12/02 01:02:24;;;;;;;2.87;2.10;;;;;;;18.52;53.46;99042.94;4977206;28;20181;-74
2023/12/02 01:04:50;;;;;;;3.60;2.83;;;;;;;18.50;53.70;99041.72;4996100;28;20180;-76
2023/12/02 01:07:15;;;;;;;3.03;2.10;;;;;;;18.51;53.40;99038.47;4990735;28;20170;-76
2023/12/02 01:09:40;;;;;;;3.73;2.40;;;;;;;18.51;53.82;99044.19;4990013;28;20216;-75
2023/12/02 01:12:06;;;;;;;3.33;2.40;;;;;;;18.52;53.29;99042.16;4991856;28;20550;-76
2023/12/02 01:14:32;;;;;;;3.43;2.33;;;;;;;18.51;53.53;99049.91;4990234;28;20946;-76
2023/12/02 01:16:57;;;;;;;2.87;2.10;;;;;;;18.50;53.28;99041.72;5006253;28;20192;-76
2023/12/02 01:19:22;;;;;;;3.40;2.43;;;;;;;18.49;53.52;99046.66;5005115;28;20177;-76
2023/12/02 01:21:48;;;;;;;3.70;2.47;;;;;;;18.46;53.46;99047.47;4957681;28;20208;-77
2023/12/02 01:24:14;;;;;;;3.37;2.23;;;;;;;18.47;53.63;99043.38;4973205;28;20243;-76
2023/12/02 01:26:39;;;;;;;4.90;3.03;;;;;;;18.44;53.67;99044.22;4991849;28;20237;-76
2023/12/02 01:29:05;;;;;;;3.43;2.40;;;;;;;18.46;53.64;99040.94;4989817;28;21128;-77
2023/12/02 01:31:30;;;;;;;3.70;2.67;;;;;;;18.45;53.59;99051.56;5002779;28;20634;-76
2023/12/02 01:33:56;;;;;;;3.23;2.13;;;;;;;18.48;53.71;99058.47;5007628;28;20715;-75
2023/12/02 01:36:21;;;;;;;2.97;2.10;;;;;;;18.46;53.69;99058.88;4990746;28;20279;-76
2023/12/02 01:38:46;;;;;;;3.53;2.20;;;;;;;18.47;53.75;99071.16;4993040;28;20555;-76
2023/12/02 01:41:12;;;;;;;3.27;2.47;;;;;;;18.44;53.57;99075.63;4987466;28;20208;-76
2023/12/02 01:43:37;;;;;;;3.13;2.47;;;;;;;18.45;53.51;99074.41;4988912;28;20196;-76
2023/12/02 01:46:03;;;;;;;3.60;2.27;;;;;;;18.43;53.57;99082.59;4990235;28;20284;-76
2023/12/02 01:48:29;;;;;;;2.90;2.30;;;;;;;18.43;53.73;99082.59;4975029;28;20525;-76
2023/12/02 01:50:55;;;;;;;4.00;2.90;;;;;;;18.42;53.63;99089.50;4990680;28;20714;-76
2023/12/02 01:53:21;;;;;;;4.13;2.27;;;;;;;18.45;53.92;99088.69;4971223;28;20436;-76
2023/12/02 01:55:46;;;;;;;4.00;2.63;;;;;;;18.41;53.44;99095.66;4987474;28;20471;-77
2023/12/02 01:58:12;;;;;;;5.97;3.30;;;;;;;18.40;53.31;99100.53;4987411;28;20590;-76
2023/12/02 02:00:37;;;;;;;3.67;2.60;;;;;;;18.38;53.87;99097.28;4989486;28;20636;-74
2023/12/02 02:03:02;;;;;;;3.83;1.87;;;;;;;18.40;53.51;99096.84;4972940;28;20641;-73
2023/12/02 02:05:28;;;;;;;3.27;2.37;;;;;;;18.38;53.59;99108.72;4970000;28;20184;-74
2023/12/02 02:07:53;;;;;;;3.80;2.40;;;;;;;18.39;53.75;99116.06;4971933;28;20205;-73
2023/12/02 02:10:22;;;;;;;3.30;2.10;;;;;;;18.43;53.69;99122.59;4984225;28;20201;-74
2023/12/02 02:12:47;;;;;;;3.60;2.70;;;;;;;18.39;53.38;99124.63;4989016;28;20173;-74
2023/12/02 02:15:13;;;;;;;3.17;2.23;;;;;;;18.37;53.98;99121.34;4973893;28;21221;-74
2023/12/02 02:17:39;;;;;;;3.00;2.07;;;;;;;18.37;53.68;99121.34;4978242;28;20177;-74
2023/12/02 02:20:05;;;;;;;4.40;2.70;;;;;;;18.41;53.54;99122.16;4993616;28;20189;-73
2023/12/02 02:22:30;;;;;;;3.00;2.10;;;;;;;18.40;53.66;99116.84;4993858;28;20833;-74
2023/12/02 02:24:56;;;;;;;3.30;2.00;;;;;;;18.45;53.26;99120.13;4975218;28;20427;-74
2023/12/02 02:27:21;;;;;;;3.57;2.47;;;;;;;18.44;53.46;99121.38;4993427;28;20185;-74
2023/12/02 02:29:47;;;;;;;3.30;2.43;;;;;;;18.43;53.42;99125.44;4994062;28;20204;-74
2023/12/02 02:32:12;;;;;;;3.00;2.37;;;;;;;18.42;53.55;99123.78;4975005;28;20289;-74
2023/12/02 02:34:42;;;;;;;4.07;2.20;;;;;;;18.40;53.54;99123.41;4975499;28;20262;-74
2023/12/02 02:37:08;;;;;;;2.73;2.13;;;;;;;18.40;53.82;99119.72;4962290;28;20189;-74
2023/12/02 02:39:33;;;;;;;3.33;1.77;;;;;;;18.39;53.62;99121.78;5026683;28;20451;-74
2023/12/02 02:42:05;;;;;;;4.13;2.80;;;;;;;18.40;53.74;99108.28;4994228;28;20251;-74
2023/12/02 02:44:34;;;;;;;3.63;2.47;;;;;;;18.38;53.90;99114.44;4979274;28;20669;-73
2023/12/02 02:46:59;;;;;;;3.00;2.37;;;;;;;18.36;53.88;99114.00;4991602;28;20494;-74
2023/12/02 02:49:24;;;;;;;3.33;2.10;;;;;;;18.34;53.81;99119.31;4962320;28;20978;-74
2023/12/02 02:51:50;;;;;;;3.80;2.30;;;;;;;18.36;53.69;99119.72;4977037;28;20671;-74
2023/12/02 02:54:15;;;;;;;3.17;2.10;;;;;;;18.37;53.26;99127.06;4992489;28;20566;-74
2023/12/02 02:56:42;;;;;;;3.43;2.03;;;;;;;18.35;53.60;99132.38;4974715;28;20901;-74
2023/12/02 02:59:08;;;;;;;3.40;2.33;;;;;;;18.35;53.42;99132.38;4975430;28;20196;-74
2023/12/02 03:01:33;;;;;;;3.00;1.93;;;;;;;18.35;53.50;99137.28;4983116;28;20436;-74
2023/12/02 03:03:58;;;;;;;3.00;2.30;;;;;;;18.33;53.79;99136.88;4993897;28;20193;-73
2023/12/02 03:06:24;;;;;;;3.17;2.50;;;;;;;18.34;53.83;99141.34;4970118;28;20201;-73
2023/12/02 03:08:50;;;;;;;2.93;1.80;;;;;;;18.37;53.29;99147.06;4973638;28;20174;-73
2023/12/02 03:11:15;;;;;;;3.00;1.90;;;;;;;18.35;53.54;99148.69;4990801;28;20231;-74
2023/12/02 03:13:40;;;;;;;4.20;2.40;;;;;;;18.32;53.34;99144.63;4993183;28;20530;-74
2023/12/02 03:16:06;;;;;;;3.50;2.00;;;;;;;18.28;53.68;99142.97;5007687;28;20193;-77
2023/12/02 03:18:32;;;;;;;2.40;1.50;;;;;;;18.29;53.75;99136.84;4975753;28;20185;-76
2023/12/02 03:20:57;;;;;;;3.37;2.40;;;;;;;18.33;53.58;99134.00;4976444;28;20207;-76
2023/12/02 03:23:23;;;;;;;3.17;2.00;;;;;;;18.27;54.03;99129.91;4976601;28;20173;-76
2023/12/02 03:25:48;;;;;;;3.73;2.40;;;;;;;18.33;53.77;99139.72;4976619;28;20185;-76
2023/12/02 03:28:13;;;;;;;3.80;2.57;;;;;;;18.30;53.91;99140.50;4986938;28;20180;-76
2023/12/02 03:30:39;;;;;;;2.70;1.93;;;;;;;18.29;53.77;99142.56;4995983;28;20219;-76
2023/12/02 03:33:04;;;;;;;2.53;1.73;;;;;;;18.29;54.43;99154.00;4976763;28;20271;-76
2023/12/02 03:35:30;;;;;;;3.83;2.10;;;;;;;18.28;53.76;99142.97;4976439;28;20279;-76
2023/12/02 03:37:55;;;;;;;2.97;2.13;;;;;;;18.33;53.52;99152.00;4975984;28;20181;-76
2023/12/02 03:40:20;;;;;;;3.67;1.90;;;;;;;18.28;53.84;99146.66;4991473;28;20204;-76
2023/12/02 03:42:46;;;;;;;3.30;1.93;;;;;;;18.31;53.61;99153.59;4992597;28;20509;-76
2023/12/02 03:45:11;;;;;;;3.47;2.17;;;;;;;18.33;53.91;99149.13;4992586;28;21060;-76
2023/12/02 03:47:37;;;;;;;2.90;2.30;;;;;;;18.33;53.45;99152.00;4989681;28;20666;-76
2023/12/02 03:50:04;;;;;;;3.23;2.23;;;;;;;18.37;53.31;99154.84;5008729;28;20311;-75
2023/12/02 03:52:30;;;;;;;3.70;2.23;;;;;;;18.35;53.73;99165.84;4976607;28;20196;-74
2023/12/02 03:54:55;;;;;;;3.20;2.20;;;;;;;18.35;53.61;99166.66;4975609;28;20444;-74
2023/12/02 03:57:21;;;;;;;3.07;2.07;;;;;;;18.35;53.58;99160.13;5016085;28;20172;-74
2023/12/02 03:59:47;;;;;;;2.70;1.90;;;;;;;18.34;53.65;99167.91;5009675;28;20192;-74
2023/12/02 04:02:12;;;;;;;3.30;2.30;;;;;;;18.33;53.60;99174.84;4993380;28;20169;-74
2023/12/02 04:04:38;;;;;;;3.40;2.10;;;;;;;18.34;53.76;99181.34;4963687;28;20275;-74
2023/12/02 04:07:04;;;;;;;2.50;2.00;;;;;;;18.37;53.77;99183.41;4980385;28;20177;-74
2023/12/02 04:09:30;;;;;;;3.10;2.13;;;;;;;18.34;53.55;99202.19;4994919;28;20937;-74
2023/12/02 04:11:55;;;;;;;2.63;1.70;;;;;;;18.34;53.33;99202.19;5014300;28;20481;-74
2023/12/02 04:14:21;;;;;;;2.60;1.80;;;;;;;18.31;54.02;99208.66;5015897;28;20231;-74
2023/12/02 04:16:46;;;;;;;2.90;1.77;;;;;;;18.29;53.42;99213.97;5014515;28;20176;-74
2023/12/02 04:19:12;;;;;;;3.20;2.07;;;;;;;18.32;53.83;99213.19;4997599;28;20196;-74
2023/12/02 04:21:41;;;;;;;2.97;1.83;;;;;;;18.30;53.49;99214.78;4964537;28;20636;-74
2023/12/02 04:24:07;;;;;;;3.67;2.57;;;;;;;18.26;53.79;99226.22;4980419;28;20675;-74
2023/12/02 04:26:33;;;;;;;3.40;2.30;;;;;;;18.28;53.68;99234.38;4980100;28;20456;-74
2023/12/02 04:28:58;;;;;;;2.97;2.10;;;;;;;18.26;53.62;99233.97;4976601;28;20199;-74
2023/12/02 04:31:24;;;;;;;2.80;2.13;;;;;;;18.28;53.62;99229.50;4980280;28;20247;-74
2023/12/02 04:33:49;;;;;;;2.73;1.90;;;;;;;18.25;53.42;99230.28;5000621;28;20228;-74
2023/12/02 04:36:14;;;;;;;3.10;2.10;;;;;;;18.23;53.91;99234.78;4997982;28;20235;-74
2023/12/02 04:38:41;;;;;;;3.17;2.33;;;;;;;18.28;53.54;99242.94;4998640;28;20173;-74
2023/12/02 04:41:07;;;;;;;2.60;1.60;;;;;;;18.24;53.72;99248.66;4997158;28;20219;-74
2023/12/02 04:43:32;;;;;;;3.40;2.27;;;;;;;18.26;53.85;99246.22;4996403;28;20504;-74
2023/12/02 04:45:57;;;;;;;2.70;1.90;;;;;;;18.23;54.00;99243.34;4997921;28;20184;-74
2023/12/02 04:48:23;;;;;;;2.50;1.90;;;;;;;18.23;53.93;99252.75;4997058;28;20243;-74
2023/12/02 04:50:48;;;;;;;3.37;2.40;;;;;;;18.23;53.61;99255.59;4999422;28;20209;-74
2023/12/02 04:53:14;;;;;;;3.70;2.37;;;;;;;18.27;53.67;99255.63;4996950;28;20157;-74
2023/12/02 04:55:39;;;;;;;2.57;1.83;;;;;;;18.27;53.85;99264.19;4981265;28;20185;-74
2023/12/02 04:58:05;;;;;;;3.00;2.17;;;;;;;18.25;53.57;99267.44;4996235;28;20821;-74
2023/12/02 05:00:30;;;;;;;3.27;2.03;;;;;;;18.29;53.55;99273.97;4996105;28;20216;-74
2023/12/02 05:02:56;;;;;;;3.50;2.40;;;;;;;18.32;53.42;99278.06;4985665;28;20213;-74
2023/12/02 05:05:21;;;;;;;3.40;2.23;;;;;;;18.35;53.74;99278.09;4979866;28;20181;-74
2023/12/02 05:07:47;;;;;;;3.13;2.00;;;;;;;18.29;53.37;99282.56;4979454;28;20177;-74
2023/12/02 05:10:12;;;;;;;3.00;2.13;;;;;;;18.33;53.35;99286.28;5009672;28;20807;-74
2023/12/02 05:12:38;;;;;;;3.03;1.97;;;;;;;18.32;53.64;99286.66;5012761;28;20224;-74
2023/12/02 05:15:04;;;;;;;2.80;2.07;;;;;;;18.34;53.34;99290.75;5008520;28;20199;-74
2023/12/02 05:17:29;;;;;;;2.40;1.57;;;;;;;18.33;53.57;99296.88;5023025;28;20207;-74
2023/12/02 05:19:55;;;;;;;2.90;1.97;;;;;;;18.35;53.47;99306.69;4997215;28;20169;-74
2023/12/02 05:22:21;;;;;;;2.80;1.80;;;;;;;18.33;53.32;99300.56;4979803;28;20177;-74
2023/12/02 05:24:46;;;;;;;2.60;1.77;;;;;;;18.31;53.33;99311.53;4980454;28;20415;-74
2023/12/02 05:27:12;;;;;;;4.00;2.20;;;;;;;18.34;53.38;99313.63;5001344;28;20185;-74
2023/12/02 05:29:38;;;;;;;2.70;1.70;;;;;;;18.35;53.50;99326.69;4996695;28;20243;-74
2023/12/02 05:32:03;;;;;;;2.83;1.90;;;;;;;18.36;52.91;99333.22;5007111;28;20633;-74
2023/12/02 05:34:29;;;;;;;3.00;2.00;;;;;;;18.33;53.36;99337.72;4991079;28;20243;-74
2023/12/02 05:36:54;;;;;;;2.80;1.70;;;;;;;18.34;53.46;99341.38;4996187;28;20181;-74
2023/12/02 05:39:20;;;;;;;2.93;1.90;;;;;;;18.34;53.20;99342.19;4980233;28;20169;-74
2023/12/02 05:41:45;;;;;;;2.83;1.80;;;;;;;18.32;53.11;99338.06;4979570;28;20185;-74
2023/12/02 05:44:11;;;;;;;4.10;2.10;;;;;;;18.29;53.29;99339.69;4980884;28;20219;-74
2023/12/02 05:46:37;;;;;;;2.93;2.03;;;;;;;18.26;53.77;99351.91;4976885;28;20184;-74
2023/12/02 05:49:02;;;;;;;3.20;2.07;;;;;;;18.28;53.49;99355.22;4993631;28;20184;-74
2023/12/02 05:51:27;;;;;;;2.70;1.87;;;;;;;18.32;52.90;99367.47;5016181;28;20505;-74
2023/12/02 05:53:53;;;;;;;3.50;2.03;;;;;;;18.30;53.26;99369.91;5034585;28;20183;-74
2023/12/02 05:56:21;;;;;;;3.00;1.77;;;;;;;18.28;53.51;99377.22;4990480;28;20189;-74
2023/12/02 05:58:48;;;;;;;3.00;1.97;;;;;;;18.27;53.50;99379.25;5015172;28;20165;-74
2023/12/02 06:01:19;;;;;;;2.80;1.90;;;;;;;18.24;53.52;99376.41;4995086;28;20439;-74
2023/12/02 06:03:44;;;;;;;2.63;1.80;;;;;;;18.31;53.41;99379.31;4992975;28;20442;-74
2023/12/02 06:06:11;;;;;;;2.40;1.73;;;;;;;18.29;53.79;99388.28;4978342;28;20431;-74
2023/12/02 06:08:36;;;;;;;3.10;1.80;;;;;;;18.30;53.41;99392.75;5009778;28;20215;-74
2023/12/02 06:11:02;;;;;;;2.70;1.87;;;;;;;18.27;53.33;99390.69;4984084;28;20482;-74
2023/12/02 06:13:27;;;;;;;2.77;1.70;;;;;;;18.27;53.45;99393.53;5001129;28;20560;-74
2023/12/02 06:15:52;;;;;;;2.10;1.53;;;;;;;18.28;53.25;99397.25;5013387;28;20204;-76
2023/12/02 06:18:18;;;;;;;3.70;2.00;;;;;;;18.28;53.44;99395.22;5025847;28;20191;-76
2023/12/02 06:20:43;;;;;;;2.73;2.03;;;;;;;18.33;53.56;99397.72;4993925;28;20284;-76
2023/12/02 06:23:09;;;;;;;6.10;2.23;;;;;;;18.35;53.15;99400.97;4977587;28;20220;-76
2023/12/02 06:25:34;;;;;;;2.47;1.60;;;;;;;18.38;53.30;99405.91;4977682;28;20207;-76
2023/12/02 06:28:00;;;;;;;3.03;2.00;;;;;;;18.35;53.20;99409.56;5012987;28;20184;-76
2023/12/02 06:30:25;;;;;;;2.47;1.80;;;;;;;18.35;53.52;99411.56;5003635;28;20328;-76
2023/12/02 06:32:51;;;;;;;3.60;2.10;;;;;;;18.39;52.96;99404.69;4977271;28;20165;-76
2023/12/02 06:35:16;;;;;;;3.33;2.53;;;;;;;18.37;53.36;99417.72;4992924;28;20228;-76
2023/12/02 06:37:42;;;;;;;2.80;1.80;;;;;;;18.38;53.33;99417.34;4986863;28;20180;-75
2023/12/02 06:40:08;;;;;;;2.63;1.80;;;;;;;18.35;53.43;99420.16;5013840;28;20157;-76
2023/12/02 06:42:34;;;;;;;3.40;1.90;;;;;;;18.38;53.29;99430.78;5000836;28;20236;-76
2023/12/02 06:44:59;;;;;;;2.60;2.00;;;;;;;18.33;53.09;99432.00;4990535;28;20433;-76
2023/12/02 06:47:25;;;;;;;2.70;1.90;;;;;;;18.41;52.88;99445.09;4990971;28;20473;-76
2023/12/02 06:49:51;;;;;;;3.90;2.27;;;;;;;18.37;52.89;99441.38;4993548;28;20192;-76
2023/12/02 06:52:16;;;;;;;3.30;2.10;;;;;;;18.38;53.14;99443.06;4995948;28;21051;-75
2023/12/02 06:54:41;;;;;;;3.00;1.90;;;;;;;18.36;53.01;99453.25;5012176;28;20165;-76
2023/12/02 06:57:08;;;;;;;2.77;1.70;;;;;;;18.37;53.33;99461.38;4994819;28;20224;-75
2023/12/02 06:59:33;;;;;;;3.50;1.80;;;;;;;18.37;53.35;99464.25;4991923;28;20173;-75
2023/12/02 07:01:59;;;;;;;2.47;1.73;;;;;;;18.35;53.11;99469.56;4973202;28;20471;-76
2023/12/02 07:04:24;;;;;;;3.07;1.87;;;;;;;18.36;53.60;99473.25;4984592;28;20267;-75
2023/12/02 07:06:50;;;;;;;2.87;1.87;;;;;;;18.36;52.97;99473.25;4977051;28;20181;-76
2023/12/02 07:09:15;;;;;;;2.67;1.60;;;;;;;18.34;53.36;99482.22;4992756;28;20177;-76
2023/12/02 07:11:41;;;;;;;2.30;1.60;;;;;;;18.35;53.34;99483.84;4992129;28;20185;-76
2023/12/02 07:14:06;;;;;;;2.60;1.80;;;;;;;18.34;53.11;99485.06;4993371;28;20621;-75
2023/12/02 07:16:32;;;;;;;2.43;1.87;;;;;;;18.32;53.37;99489.50;4975792;28;20181;-76
2023/12/02 07:18:57;;;;;;;2.33;1.77;;;;;;;18.31;52.98;99490.75;4976389;28;20196;-75
2023/12/02 07:21:23;;;;;;;2.40;1.70;;;;;;;18.34;53.08;99507.09;4993116;28;20157;-75
2023/12/02 07:23:48;;;;;;;2.63;1.77;;;;;;;18.34;52.86;99507.09;4976406;28;20171;-76
2023/12/02 07:26:14;;;;;;;2.60;1.90;;;;;;;18.30;53.79;99507.06;4978896;28;20219;-73
2023/12/02 07:28:40;;;;;;;2.40;1.90;;;;;;;18.32;53.03;99516.06;4993513;28;20191;-73
2023/12/02 07:31:11;;;;;;;1.90;1.40;;;;;;;18.30;53.11;99512.75;4991238;28;20233;-73
2023/12/02 07:33:36;;;;;;;4.27;1.90;;;;;;;18.35;53.57;99514.44;4976348;28;20251;-73
2023/12/02 07:36:02;;;;;;;2.53;1.90;;;;;;;18.32;52.95;99524.63;4992893;28;20400;-74
2023/12/02 07:38:27;;;;;;;2.43;1.70;;;;;;;18.34;53.00;99513.66;4970663;28;20210;-73
2023/12/02 07:40:53;;;;;;;3.40;2.20;;;;;;;18.36;52.89;99524.69;4974068;28;20173;-73
2023/12/02 07:43:18;;;;;;;2.77;2.13;;;;;;;18.34;53.42;99521.38;4960400;28;20173;-73
2023/12/02 07:45:44;;;;;;;2.43;1.70;;;;;;;18.35;53.32;99517.31;4993237;28;20211;-73
2023/12/02 07:48:10;;;;;;;3.03;1.93;;;;;;;18.36;53.24;99528.34;4972781;28;20280;-73
2023/12/02 07:50:37;;;;;;;2.90;1.97;;;;;;;18.39;52.71;99539.00;4991868;28;20304;-73
2023/12/02 07:53:03;;;;;;;2.73;1.87;;;;;;;18.43;52.89;99541.88;4992273;28;20887;-73
2023/12/02 07:55:28;;;;;;;2.73;1.80;;;;;;;18.40;52.96;99552.06;4990757;28;20444;-73
2023/12/02 07:57:53;;;;;;;2.10;1.60;;;;;;;18.40;52.66;99563.50;4991690;28;20192;-73
2023/12/02 08:00:19;;;;;;;2.50;1.90;;;;;;;18.38;53.05;99560.22;4975851;28;20181;-73
2023/12/02 08:02:45;;;;;;;2.90;2.13;;;;;;;18.36;52.89;99576.13;4960200;28;20284;-73
2023/12/02 08:05:10;;;;;;;4.70;1.90;;;;;;;18.37;53.03;99569.97;4973689;28;20219;-73
2023/12/02 08:07:35;;;;;;;3.13;1.73;;;;;;;18.40;53.29;99574.91;4976198;28;20197;-73
2023/12/02 08:10:01;;;;;;;2.00;1.33;;;;;;;18.42;52.92;99575.31;4992572;28;20665;-73
2023/12/02 08:12:26;;;;;;;2.33;1.70;;;;;;;18.42;52.92;99575.31;5009131;28;20200;-73
2023/12/02 08:14:52;;;;;;;2.50;1.53;;;;;;;18.39;53.09;99587.56;5006882;28;20193;-73
2023/12/02 08:17:17;;;;;;;3.17;2.10;;;;;;;18.39;53.22;99578.16;4978071;28;20188;-73
2023/12/02 08:19:43;;;;;;;2.67;1.87;;;;;;;18.42;52.86;99577.38;4992558;28;20184;-73
2023/12/02 08:22:08;;;;;;;2.47;1.80;;;;;;;18.43;52.84;99585.56;4976470;28;20172;-74
2023/12/02 08:24:36;;;;;;;2.63;1.90;;;;;;;18.39;52.75;99587.56;5009975;28;20243;-73
2023/12/02 08:27:01;;;;;;;2.00;1.37;;;;;;;18.39;52.62;99586.75;4994217;28;20584;-73
2023/12/02 08:29:27;;;;;;;2.60;1.57;;;;;;;18.42;52.83;99583.09;4992190;28;20485;-73
2023/12/02 08:31:52;;;;;;;3.40;1.80;;;;;;;18.40;52.96;99591.22;4984399;28;20226;-73
2023/12/02 08:34:18;;;;;;;2.33;1.90;;;;;;;18.39;53.27;99598.16;4967941;28;20240;-73
2023/12/02 08:36:43;;;;;;;3.00;1.80;;;;;;;18.40;53.07;99596.94;4974545;28;20608;-75
2023/12/02 08:39:09;;;;;;;3.07;1.57;;;;;;;18.37;53.13;99604.28;4991131;28;20641;-76
2023/12/02 08:41:36;;;;;;;3.13;1.90;;;;;;;18.38;53.07;99611.66;4990417;28;20240;-76
2023/12/02 08:44:01;;;;;;;4.03;1.73;;;;;;;18.35;53.00;99612.44;4976047;28;20242;-76
2023/12/02 08:46:27;;;;;;;2.93;2.07;;;;;;;18.36;53.14;99614.06;4988961;28;20448;-76
2023/12/02 08:48:52;;;;;;;2.60;1.90;;;;;;;18.38;52.74;99619.41;4973775;28;20188;-76
2023/12/02 08:51:18;;;;;;;2.40;1.73;;;;;;;18.38;53.39;99623.09;4990525;28;20197;-76
2023/12/02 08:53:43;;;;;;;2.90;1.77;;;;;;;18.35;53.20;99626.72;5006735;28;20177;-75
2023/12/02 08:56:09;;;;;;;3.50;1.70;;;;;;;18.37;53.55;99632.06;4973011;28;20220;-76
2023/12/02 08:58:34;;;;;;;2.37;1.73;;;;;;;18.34;52.97;99635.69;4963009;28;20185;-76
2023/12/02 09:01:00;;;;;;;2.50;1.60;;;;;;;18.34;53.17;99638.53;4991995;28;20268;-76
2023/12/02 09:03:26;;;;;;;2.43;1.80;;;;;;;18.35;53.35;99643.88;4981848;28;20549;-76
2023/12/02 09:05:56;;;;;;;2.77;1.87;;;;;;;18.34;53.17;99650.81;4959110;28;20177;-75
2023/12/02 09:08:21;;;;;;;3.03;1.63;;;;;;;18.37;52.76;99660.63;4971386;28;20192;-75
2023/12/02 09:10:47;;;;;;;2.60;1.37;;;;;;;18.37;52.93;99657.78;4990985;28;20463;-75
2023/12/02 09:13:47;;;;;;;2.07;1.40;;;;;;;18.40;52.80;99663.50;4982416;28;20262;-76
2023/12/02 09:16:23;;;;;;;2.43;1.80;;;;;;;18.41;52.98;99667.19;4991013;28;20239;-76
2023/12/02 09:18:49;;;;;;;2.90;1.87;;;;;;;18.43;52.69;99682.75;4973979;28;20474;-75
2023/12/02 09:21:20;;;;;;;2.77;1.80;;;;;;;18.41;53.02;99696.59;4975178;28;20886;-76
2023/12/02 09:23:48;;;;;;;2.30;1.60;;;;;;;18.48;52.82;99701.53;5010038;28;20246;-76
2023/12/02 09:26:40;;;;;;;3.00;1.80;;;;;;;18.46;53.11;99710.50;5007721;28;20443;-75
2023/12/02 09:29:06;;;;;;;3.40;1.80;;;;;;;18.47;52.60;99706.44;4988516;28;20428;-75
2023/12/02 09:31:32;;;;;;;2.70;1.47;;;;;;;18.44;52.73;99700.69;4968171;28;20468;-76
2023/12/02 09:34:02;;;;;;;3.37;1.73;;;;;;;18.43;53.23;99708.47;4979575;28;20242;-76
2023/12/02 09:36:31;;;;;;;2.50;1.70;;;;;;;18.44;53.03;99712.97;4997770;28;20204;-76
2023/12/02 09:39:00;;;;;;;2.57;1.50;;;;;;;18.41;52.89;99712.94;4987162;28;20520;-76
2023/12/02 09:41:32;;;;;;;3.00;2.10;;;;;;;18.42;53.04;99706.78;4973701;28;20427;-76
2023/12/02 09:44:04;;;;;;;2.47;1.73;;;;;;;18.44;52.93;99717.84;4967481;28;20497;-75
2023/12/02 09:46:33;;;;;;;2.00;1.50;;;;;;;18.41;52.87;99713.72;5027259;28;21541;-74
2023/12/02 09:49:36;;;;;;;3.43;1.80;;;;;;;18.46;52.88;99721.94;4989583;28;20444;-74
2023/12/02 09:52:25;;;;;;;2.30;1.67;;;;;;;18.46;52.64;99726.84;5007534;28;20446;-74
2023/12/02 09:55:10;;;;;;;2.60;1.70;;;;;;;18.43;52.58;99728.47;5007498;28;20424;-74
2023/12/02 09:57:41;;;;;;;2.00;1.30;;;;;;;18.45;52.76;99728.88;4983755;28;20523;-74
2023/12/02 10:00:12;;;;;;;2.10;1.37;;;;;;;18.48;52.84;99730.13;5006687;28;20430;-74
2023/12/02 10:02:58;;;;;;;2.50;1.53;;;;;;;18.42;52.95;99731.72;5006763;28;20835;-74
2023/12/02 10:05:23;;;;;;;3.57;1.73;;;;;;;18.43;53.18;99739.06;4990072;28;20439;-74
2023/12/02 10:08:11;;;;;;;2.33;1.47;;;;;;;18.42;52.99;99735.38;4990926;28;20415;-74
2023/12/02 10:10:48;;;;;;;2.47;1.70;;;;;;;18.46;52.71;99744.00;4990696;28;20219;-74
2023/12/02 10:13:18;;;;;;;2.10;1.20;;;;;;;18.48;52.56;99745.25;4992063;28;20489;-74
2023/12/02 10:15:45;;;;;;;2.37;1.60;;;;;;;18.45;52.91;99743.16;5008336;28;20488;-74
2023/12/02 10:18:14;;;;;;;2.20;1.43;;;;;;;18.46;52.76;99744.81;4990268;28;20424;-75
2023/12/02 10:20:41;;;;;;;2.50;1.80;;;;;;;18.46;53.17;99750.53;4999846;28;20459;-74
2023/12/02 10:23:09;;;;;;;2.00;1.40;;;;;;;18.44;52.95;99738.69;4967756;28;20427;-74
2023/12/02 10:25:42;;;;;;;3.60;2.07;;;;;;;18.44;52.87;99744.41;5010430;28;20420;-74
2023/12/02 10:28:12;;;;;;;4.60;1.77;;;;;;;18.43;52.85;99745.63;5026766;28;20403;-74
2023/12/02 10:30:42;;;;;;;2.60;1.70;;;;;;;18.40;53.09;99743.53;4989525;28;20498;-74
2023/12/02 10:33:35;;;;;;;2.30;1.47;;;;;;;18.44;52.94;99749.28;4988515;28;20456;-74
2023/12/02 10:36:07;;;;;;;2.50;1.70;;;;;;;18.48;52.82;99742.41;4990217;28;20447;-75
2023/12/02 10:38:52;;;;;;;3.07;1.80;;;;;;;18.47;52.64;99755.03;5011434;28;20429;-74
2023/12/02 10:41:29;;;;;;;2.30;1.63;;;;;;;18.48;52.56;99765.25;5012753;28;20580;-74
2023/12/02 10:43:58;;;;;;;2.53;1.60;;;;;;;18.45;53.02;99757.47;4978581;28;20495;-74
2023/12/02 10:46:24;;;;;;;2.57;1.60;;;;;;;18.42;53.45;99761.09;4974149;28;20421;-74
2023/12/02 10:48:49;;;;;;;2.30;1.53;;;;;;;18.51;52.77;99770.19;4985254;28;20481;-74
2023/12/02 10:51:15;;;;;;;3.03;1.77;;;;;;;18.49;53.26;99778.34;5013754;28;20270;-74
2023/12/02 10:53:42;;;;;;;2.60;1.50;;;;;;;18.51;52.85;99781.59;5007860;28;20193;-74
2023/12/02 10:56:13;;;;;;;2.30;1.43;;;;;;;18.55;52.62;99784.50;4996502;28;20407;-74
2023/12/02 10:58:39;;;;;;;2.40;1.53;;;;;;;18.54;52.73;99786.56;4999300;28;20408;-74
2023/12/02 11:01:08;;;;;;;2.50;1.70;;;;;;;18.48;52.86;99788.13;4998628;28;20439;-74
2023/12/02 11:03:43;;;;;;;2.00;1.40;;;;;;;18.46;53.09;99784.81;4992127;28;20542;-74
2023/12/02 11:06:16;;;;;;;2.60;1.93;;;;;;;18.48;52.96;99782.41;4983401;28;20501;-73
2023/12/02 11:08:53;;;;;;;2.50;1.53;;;;;;;18.45;52.82;99793.78;4994313;28;20454;-74
2023/12/02 11:11:45;;;;;;;2.40;1.60;;;;;;;18.46;52.95;99787.69;5032154;28;20446;-74
2023/12/02 11:14:17;;;;;;;2.80;2.00;;;;;;;18.48;52.69;99793.84;5018547;28;20942;-74
2023/12/02 11:17:09;;;;;;;2.63;1.63;;;;;;;18.51;52.91;99797.97;4965099;28;20531;-74
2023/12/02 11:20:08;;;;;;;2.10;1.40;;;;;;;18.50;53.16;99799.16;4978042;28;20417;-74
2023/12/02 11:23:00;;;;;;;2.17;1.50;;;;;;;18.47;52.79;99802.81;4978213;28;20463;-74
2023/12/02 11:25:34;;;;;;;2.83;1.70;;;;;;;18.48;52.79;99807.31;4979969;28;20456;-74
2023/12/02 11:28:05;;;;;;;2.40;1.50;;;;;;;18.49;52.76;99818.34;4992278;28;20939;-74
2023/12/02 11:30:42;;;;;;;2.80;1.60;;;;;;;18.45;53.01;99817.50;4993217;28;20487;-74
2023/12/02 11:33:41;;;;;;;2.23;1.60;;;;;;;18.47;53.24;99814.25;5010237;28;20527;-74
2023/12/02 11:36:33;;;;;;;2.13;1.47;;;;;;;18.46;52.93;99821.97;4990688;28;20939;-74